Time;durP1;ratioP1;P1;durP2;ratioP2;P2;SDS_P1;SDS_P2;PMS_P1;PMS_P2;Temp;Humidity;BMP_temperature;BMP_pressure;BME280_temperature;BME280_humidity;BME280_pressure;Samples;Min_cycle;Max_cycle;Signal;HPM_P1;HPM_P2
2024/02/29 00:00:47;;;;;;;59.15;36.78;;;12.30;99.90;;;;;;4996294;28;20037;-51
2024/02/29 00:03:13;;;;;;;57.50;36.25;;;12.30;99.90;;;;;;4996222;28;20117;-53
2024/02/29 00:05:39;;;;;;;43.38;29.52;;;12.20;99.90;;;;;;4996224;28;20101;-54
2024/02/29 00:08:05;;;;;;;46.85;29.85;;;12.10;99.90;;;;;;4996159;28;20128;-52
2024/02/29 00:10:31;;;;;;;36.08;23.95;;;12.10;99.90;;;;;;4914196;28;20048;-54
2024/02/29 00:12:57;;;;;;;29.08;21.83;;;12.00;99.90;;;;;;4995603;28;20105;-53
2024/02/29 00:15:23;;;;;;;37.60;22.42;;;12.00;99.90;;;;;;4996235;28;20487;-53
2024/02/29 00:17:48;;;;;;;36.22;23.63;;;11.90;99.90;;;;;;4996007;28;20036;-51
2024/02/29 00:20:14;;;;;;;39.03;23.38;;;11.90;99.90;;;;;;4996006;28;20117;-54
2024/02/29 00:22:41;;;;;;;32.95;22.08;;;12.00;99.90;;;;;;4996214;28;20034;-55
2024/02/29 00:25:07;;;;;;;33.83;22.20;;;12.00;99.90;;;;;;4995980;28;20084;-55
2024/02/29 00:27:33;;;;;;;35.00;23.13;;;11.90;99.90;;;;;;4995790;28;20483;-54
2024/02/29 00:29:59;;;;;;;38.20;24.92;;;11.80;99.90;;;;;;4995826;28;20052;-53
2024/02/29 00:32:25;;;;;;;40.13;24.27;;;11.90;99.90;;;;;;4995796;28;20023;-54
2024/02/29 00:34:51;;;;;;;45.10;25.35;;;11.80;99.90;;;;;;4961998;28;21253;-52
2024/02/29 00:37:17;;;;;;;35.95;23.98;;;;;;;;;;4961635;28;20047;-55
2024/02/29 00:39:43;;;;;;;29.98;22.95;;;;;;;;;;4995698;28;20033;-52
2024/02/29 00:42:09;;;;;;;35.13;24.55;;;;;;;;;;4995469;28;20096;-53
2024/02/29 00:44:35;;;;;;;35.45;24.15;;;;;;;;;;4995455;28;20030;-53
2024/02/29 00:47:01;;;;;;;39.05;22.05;;;;;;;;;;4995479;28;20471;-53
2024/02/29 00:49:27;;;;;;;36.03;24.17;;;;;;;;;;4995505;28;20045;-54
2024/02/29 00:51:53;;;;;;;34.28;22.00;;;;;;;;;;4995520;28;20030;-53
2024/02/29 00:54:19;;;;;;;34.38;23.30;;;11.70;99.90;;;;;;4995052;28;20050;-53
2024/02/29 00:56:45;;;;;;;35.70;24.15;;;11.80;99.90;;;;;;4995230;28;20038;-53
2024/02/29 00:59:10;;;;;;;40.88;24.73;;;11.70;99.90;;;;;;4945299;28;20046;-53
2024/02/29 01:01:36;;;;;;;35.55;24.70;;;11.70;99.90;;;;;;4990699;28;20080;-53
2024/02/29 01:04:03;;;;;;;44.05;24.73;;;11.70;99.90;;;;;;4995134;28;20026;-53
2024/02/29 01:06:29;;;;;;;33.38;24.02;;;11.60;99.90;;;;;;4995098;28;20040;-54
2024/02/29 01:08:54;;;;;;;37.42;25.33;;;11.60;99.90;;;;;;4995463;28;20458;-54
2024/02/29 01:11:20;;;;;;;30.67;22.20;;;11.70;99.90;;;;;;4960804;28;20084;-52
2024/02/29 01:13:46;;;;;;;33.20;23.20;;;11.60;99.90;;;;;;4944673;28;20074;-53
2024/02/29 01:16:12;;;;;;;32.35;23.85;;;;;;;;;;4994845;28;20367;-53
2024/02/29 01:18:40;;;;;;;35.95;23.88;;;11.60;99.90;;;;;;4960778;28;20057;-54
2024/02/29 01:21:06;;;;;;;38.35;24.38;;;11.70;99.90;;;;;;4961369;28;20497;-54
2024/02/29 01:23:32;;;;;;;31.15;22.95;;;11.70;99.90;;;;;;4994828;28;20055;-54
2024/02/29 01:25:57;;;;;;;39.17;24.70;;;11.70;99.90;;;;;;4993788;28;20061;-54
2024/02/29 01:28:23;;;;;;;34.10;24.42;;;11.90;99.90;;;;;;4994639;28;20026;-52
2024/02/29 01:30:49;;;;;;;36.22;24.75;;;11.90;99.90;;;;;;4994656;28;20030;-52
2024/02/29 01:33:14;;;;;;;33.88;24.33;;;11.80;99.90;;;;;;4994565;28;20034;-53
2024/02/29 01:35:41;;;;;;;38.20;23.98;;;11.80;99.90;;;;;;4994773;28;20030;-54
2024/02/29 01:38:07;;;;;;;36.15;23.50;;;11.80;99.90;;;;;;4994526;28;20509;-53
2024/02/29 01:40:33;;;;;;;35.92;22.35;;;11.80;99.90;;;;;;4994432;28;20065;-53
2024/02/29 01:42:58;;;;;;;34.13;22.25;;;11.70;99.90;;;;;;4994421;28;20072;-52
2024/02/29 01:45:24;;;;;;;31.25;22.33;;;11.70;99.90;;;;;;4994431;28;20486;-53
2024/02/29 01:47:50;;;;;;;33.80;22.95;;;11.60;99.90;;;;;;4994534;28;20382;-54
2024/02/29 01:50:16;;;;;;;29.67;20.77;;;11.60;99.90;;;;;;4924795;28;20046;-52
2024/02/29 01:52:44;;;;;;;33.25;22.75;;;11.60;99.90;;;;;;4941182;28;20542;-52
2024/02/29 01:55:11;;;;;;;38.13;23.20;;;11.60;99.90;;;;;;4974755;28;20137;-52
2024/02/29 01:57:38;;;;;;;36.05;23.73;;;11.60;99.90;;;;;;4967817;28;20042;-51
2024/02/29 02:00:05;;;;;;;35.67;24.73;;;11.60;99.90;;;;;;4993850;28;20044;-53
2024/02/29 02:02:30;;;;;;;39.00;25.73;;;11.60;99.90;;;;;;4927770;28;20078;-54
2024/02/29 02:04:56;;;;;;;34.88;25.15;;;11.60;99.90;;;;;;4990108;28;20064;-52
2024/02/29 02:07:23;;;;;;;38.78;26.52;;;11.50;99.90;;;;;;4994033;28;20026;-53
2024/02/29 02:09:49;;;;;;;36.15;24.83;;;11.60;99.90;;;;;;4992892;28;20558;-53
2024/02/29 02:12:15;;;;;;;38.95;25.70;;;11.60;99.90;;;;;;4993718;28;20022;-52
2024/02/29 02:14:41;;;;;;;39.35;26.80;;;11.60;99.90;;;;;;4943479;28;20064;-52
2024/02/29 02:17:07;;;;;;;59.80;37.92;;;11.60;99.90;;;;;;4993843;28;20034;-54
2024/02/29 02:19:33;;;;;;;60.53;42.65;;;11.60;99.90;;;;;;4959787;28;20030;-54
2024/02/29 02:21:58;;;;;;;40.38;27.08;;;11.50;99.90;;;;;;4943863;28;20042;-52
2024/02/29 02:24:25;;;;;;;41.05;26.73;;;11.50;99.90;;;;;;4943516;28;20039;-54
2024/02/29 02:26:51;;;;;;;38.50;27.05;;;11.60;99.90;;;;;;4943950;28;20050;-54
2024/02/29 02:29:17;;;;;;;41.50;25.23;;;11.60;99.90;;;;;;4993955;28;20084;-54
2024/02/29 02:31:43;;;;;;;38.58;25.20;;;11.60;99.90;;;;;;4993868;28;20475;-53
2024/02/29 02:34:08;;;;;;;40.10;26.15;;;11.50;99.90;;;;;;4959571;28;20034;-53
2024/02/29 02:36:34;;;;;;;42.15;26.38;;;11.50;99.90;;;;;;4994799;28;20041;-52
2024/02/29 02:39:00;;;;;;;44.92;25.30;;;11.40;99.90;;;;;;4997798;28;20030;-53
2024/02/29 02:41:26;;;;;;;39.00;25.30;;;11.40;99.90;;;;;;4997925;28;20068;-54
2024/02/29 02:43:51;;;;;;;36.03;25.40;;;11.40;99.90;;;;;;4997993;28;20030;-53
2024/02/29 02:46:19;;;;;;;37.25;26.20;;;11.30;99.90;;;;;;4997731;28;20516;-54
2024/02/29 02:48:44;;;;;;;38.47;26.38;;;11.40;99.90;;;;;;4997648;28;20061;-54
2024/02/29 02:51:10;;;;;;;37.03;26.55;;;11.50;99.90;;;;;;4997656;28;20506;-53
2024/02/29 02:53:36;;;;;;;36.58;27.40;;;11.50;99.90;;;;;;4963422;28;20538;-54
2024/02/29 02:56:03;;;;;;;40.45;26.40;;;11.50;99.90;;;;;;4960025;28;20055;-53
2024/02/29 02:58:30;;;;;;;36.33;25.15;;;11.50;99.90;;;;;;4978207;28;20035;-53
2024/02/29 03:00:55;;;;;;;44.10;26.02;;;11.40;99.90;;;;;;4978060;28;20046;-53
2024/02/29 03:03:21;;;;;;;35.20;25.33;;;11.40;99.90;;;;;;4977925;28;20030;-53
2024/02/29 03:05:47;;;;;;;35.10;24.38;;;11.40;99.90;;;;;;4977777;28;20118;-51
2024/02/29 03:08:13;;;;;;;35.65;26.05;;;11.40;99.90;;;;;;4977933;28;20030;-53
2024/02/29 03:10:38;;;;;;;34.20;24.98;;;11.50;99.90;;;;;;4977993;28;20443;-54
2024/02/29 03:13:04;;;;;;;45.08;27.88;;;11.50;99.90;;;;;;4978020;28;20085;-54
2024/02/29 03:15:30;;;;;;;44.50;26.23;;;11.60;99.90;;;;;;4977802;28;20081;-52
2024/02/29 03:17:56;;;;;;;38.78;25.67;;;11.50;99.90;;;;;;4977576;28;20138;-54
2024/02/29 03:20:25;;;;;;;46.17;27.58;;;11.40;99.90;;;;;;4927712;28;20046;-54
2024/02/29 03:22:50;;;;;;;39.88;27.95;;;11.40;99.90;;;;;;4977600;28;20034;-54
2024/02/29 03:25:16;;;;;;;44.65;28.55;;;11.30;99.90;;;;;;4977522;28;20034;-53
2024/02/29 03:27:42;;;;;;;43.85;27.38;;;10.90;99.90;;;;;;4977381;28;20031;-54
2024/02/29 03:30:09;;;;;;;37.10;26.88;;;10.50;99.90;;;;;;4977844;28;20114;-55
2024/02/29 03:32:35;;;;;;;43.95;28.80;;;10.60;99.90;;;;;;4943741;28;20054;-53
2024/02/29 03:35:02;;;;;;;42.03;28.08;;;10.70;99.90;;;;;;4959521;28;20035;-53
2024/02/29 03:37:27;;;;;;;39.13;27.13;;;10.90;99.90;;;;;;4959522;28;20380;-55
2024/02/29 03:39:54;;;;;;;40.92;27.23;;;10.80;99.90;;;;;;4977213;28;20034;-54
2024/02/29 03:42:20;;;;;;;39.28;27.17;;;10.70;99.90;;;;;;4977574;28;20039;-53
2024/02/29 03:44:46;;;;;;;41.17;27.92;;;10.60;99.90;;;;;;4977333;28;20037;-55
2024/02/29 03:47:12;;;;;;;37.58;26.13;;;10.60;99.90;;;;;;4959167;28;20042;-52
2024/02/29 03:49:38;;;;;;;38.05;27.38;;;10.70;99.90;;;;;;4974977;28;20029;-55
2024/02/29 03:52:04;;;;;;;40.70;26.55;;;10.80;99.90;;;;;;4977167;28;20030;-53
2024/02/29 03:54:30;;;;;;;37.53;26.52;;;10.90;99.90;;;;;;4959042;28;20443;-54
2024/02/29 03:56:55;;;;;;;39.55;27.50;;;11.00;99.90;;;;;;4976862;28;20394;-54
2024/02/29 03:59:21;;;;;;;38.25;27.58;;;11.00;99.90;;;;;;4977023;28;20023;-53
2024/02/29 04:01:50;;;;;;;39.33;27.25;;;11.00;99.90;;;;;;4976980;28;20081;-53
2024/02/29 04:04:17;;;;;;;40.40;28.45;;;10.70;99.90;;;;;;4976826;28;20030;-53
2024/02/29 04:06:43;;;;;;;42.10;27.38;;;10.50;99.90;;;;;;4976883;28;20098;-53
2024/02/29 04:09:11;;;;;;;37.33;27.05;;;10.40;99.90;;;;;;4958958;28;20046;-52
2024/02/29 04:11:37;;;;;;;35.83;27.30;;;;;;;;;;4976747;28;20033;-54
2024/02/29 04:14:06;;;;;;;38.15;25.00;;;9.80;99.90;;;;;;4958728;28;20068;-55
2024/02/29 04:16:38;;;;;;;34.25;24.25;;;;;;;;;;4977080;28;20113;-53
2024/02/29 04:19:07;;;;;;;33.70;24.38;;;;;;;;;;4976647;28;20078;-54
2024/02/29 04:21:33;;;;;;;36.92;26.00;;;;;;;;;;4976546;28;20049;-53
2024/02/29 04:24:00;;;;;;;35.47;25.52;;;9.30;99.90;;;;;;4976483;28;20031;-52
2024/02/29 04:26:26;;;;;;;38.35;27.55;;;8.90;99.90;;;;;;4976524;28;20542;-53
2024/02/29 04:28:53;;;;;;;34.90;25.30;;;9.30;99.90;;;;;;4976284;28;20170;-55
2024/02/29 04:31:18;;;;;;;34.85;25.92;;;9.10;99.90;;;;;;4976479;28;20415;-53
2024/02/29 04:33:45;;;;;;;38.63;25.33;;;;;;;;;;4976425;28;20027;-53
2024/02/29 04:36:11;;;;;;;39.55;26.67;;;;;;;;;;4976269;28;20038;-54
2024/02/29 04:38:37;;;;;;;38.13;27.20;;;8.70;99.90;;;;;;4976431;28;20498;-54
2024/02/29 04:41:03;;;;;;;34.63;23.63;;;8.70;99.90;;;;;;4976322;28;20035;-54
2024/02/29 04:43:29;;;;;;;33.53;23.73;;;8.70;99.90;;;;;;4958291;28;20035;-55
2024/02/29 04:45:57;;;;;;;37.28;24.48;;;8.70;99.90;;;;;;4975898;28;20058;-55
2024/02/29 04:48:23;;;;;;;37.50;23.48;;;8.40;99.90;;;;;;4976264;28;20026;-53
2024/02/29 04:50:49;;;;;;;36.45;24.35;;;8.40;99.90;;;;;;4926167;28;20060;-54
2024/02/29 04:53:15;;;;;;;39.55;24.98;;;8.20;99.90;;;;;;4975990;28;20086;-53
2024/02/29 04:55:41;;;;;;;40.47;26.42;;;8.10;99.90;;;;;;4990871;28;20046;-52
2024/02/29 04:58:07;;;;;;;39.55;27.13;;;8.30;99.90;;;;;;4995096;28;20125;-53
2024/02/29 05:00:33;;;;;;;36.50;24.50;;;8.40;99.90;;;;;;4994681;28;20105;-54
2024/02/29 05:02:58;;;;;;;39.08;26.58;;;8.40;99.90;;;;;;4994890;28;20037;-55
2024/02/29 05:05:25;;;;;;;37.45;26.90;;;8.50;99.90;;;;;;4995065;28;20026;-53
2024/02/29 05:07:51;;;;;;;39.45;27.02;;;8.70;99.90;;;;;;4995263;28;20037;-54
2024/02/29 05:10:16;;;;;;;44.78;26.48;;;9.10;99.90;;;;;;4994757;28;20424;-53
2024/02/29 05:12:42;;;;;;;44.72;27.85;;;9.40;99.90;;;;;;4952492;28;20113;-55
2024/02/29 05:15:08;;;;;;;50.00;29.23;;;9.60;99.90;;;;;;4941687;28;20039;-52
2024/02/29 05:17:34;;;;;;;50.67;28.40;;;9.60;99.90;;;;;;4995206;28;20038;-55
2024/02/29 05:19:59;;;;;;;44.10;27.83;;;9.80;99.90;;;;;;4994840;28;20494;-54
2024/02/29 05:22:26;;;;;;;42.10;27.50;;;9.90;99.90;;;;;;4993951;28;20390;-55
2024/02/29 05:24:51;;;;;;;45.70;28.33;;;10.00;99.90;;;;;;4994789;28;20490;-54
2024/02/29 05:27:17;;;;;;;45.05;29.13;;;10.00;99.90;;;;;;4994744;28;20109;-55
2024/02/29 05:29:43;;;;;;;44.80;29.25;;;10.00;99.90;;;;;;4994732;28;20036;-52
2024/02/29 05:32:08;;;;;;;46.45;30.95;;;10.20;99.90;;;;;;4994669;28;20030;-54
2024/02/29 05:34:34;;;;;;;44.50;30.13;;;10.40;99.90;;;;;;4976689;28;20116;-55
2024/02/29 05:37:00;;;;;;;43.55;29.60;;;10.50;99.90;;;;;;4938616;28;20046;-54
2024/02/29 05:39:26;;;;;;;40.80;30.02;;;10.30;99.90;;;;;;4926380;28;20046;-52
2024/02/29 05:41:55;;;;;;;46.75;33.38;;;10.20;99.90;;;;;;4993487;28;20026;-55
2024/02/29 05:44:22;;;;;;;55.30;39.38;;;10.00;99.90;;;;;;4992028;28;20034;-55
2024/02/29 05:46:47;;;;;;;60.30;37.30;;;10.20;99.90;;;;;;4990286;28;20032;-52
2024/02/29 05:49:13;;;;;;;61.65;35.47;;;10.40;99.90;;;;;;4941494;28;20049;-54
2024/02/29 05:51:39;;;;;;;54.30;33.55;;;10.50;99.90;;;;;;4957599;28;20030;-54
2024/02/29 05:54:04;;;;;;;52.08;34.15;;;10.60;99.90;;;;;;4992461;28;20394;-55
2024/02/29 05:56:30;;;;;;;56.13;34.13;;;10.70;99.90;;;;;;4958582;28;20450;-53
2024/02/29 05:58:56;;;;;;;55.67;33.05;;;10.80;99.90;;;;;;4993224;28;20462;-52
2024/02/29 06:01:22;;;;;;;51.60;35.15;;;11.00;99.90;;;;;;4993879;28;20034;-55
2024/02/29 06:03:48;;;;;;;48.13;35.60;;;11.10;99.90;;;;;;4960403;28;20057;-52
2024/02/29 06:06:16;;;;;;;56.10;35.45;;;11.30;99.90;;;;;;4990789;28;20387;-55
2024/02/29 06:08:42;;;;;;;44.95;31.27;;;11.30;99.90;;;;;;4993162;28;20062;-55
2024/02/29 06:11:14;;;;;;;47.03;32.67;;;11.40;99.90;;;;;;4992955;28;20054;-55
2024/02/29 06:13:41;;;;;;;46.08;31.17;;;11.30;99.90;;;;;;4993461;28;20023;-55
2024/02/29 06:16:07;;;;;;;53.47;33.55;;;11.30;99.90;;;;;;4951325;28;20030;-51
2024/02/29 06:18:36;;;;;;;47.28;31.52;;;11.20;99.90;;;;;;4991989;28;20045;-55
2024/02/29 06:21:03;;;;;;;46.13;32.28;;;11.20;99.90;;;;;;4954360;28;20475;-54
2024/02/29 06:23:29;;;;;;;44.60;32.72;;;11.10;99.90;;;;;;4958213;28;20041;-54
2024/02/29 06:25:55;;;;;;;45.47;34.13;;;11.10;99.90;;;;;;4941528;28;20398;-53
2024/02/29 06:28:21;;;;;;;47.97;33.53;;;11.20;99.90;;;;;;4991914;28;20030;-53
2024/02/29 06:30:46;;;;;;;47.45;31.73;;;11.20;99.90;;;;;;4993024;28;20541;-54
2024/02/29 06:33:12;;;;;;;48.30;33.33;;;11.30;99.90;;;;;;4993498;28;20030;-54
2024/02/29 06:35:38;;;;;;;45.55;33.03;;;;;;;;;;4993017;28;20061;-54
2024/02/29 06:38:04;;;;;;;48.08;33.30;;;;;;;;;;4993212;28;20120;-54
2024/02/29 06:40:30;;;;;;;44.65;30.30;;;11.40;99.90;;;;;;4992824;28;20049;-53
2024/02/29 06:42:56;;;;;;;39.42;27.05;;;10.80;99.90;;;;;;4993610;28;20022;-54
2024/02/29 06:45:22;;;;;;;39.40;26.80;;;10.20;99.90;;;;;;4993907;28;20026;-54
2024/02/29 06:47:47;;;;;;;36.15;26.50;;;10.20;99.90;;;;;;4980660;28;20034;-53
2024/02/29 06:50:13;;;;;;;36.50;26.67;;;10.20;99.90;;;;;;4940727;28;20050;-53
2024/02/29 06:52:39;;;;;;;38.22;26.90;;;10.40;99.90;;;;;;4973258;28;20030;-54
2024/02/29 06:55:09;;;;;;;39.60;27.33;;;10.70;99.90;;;;;;4988126;28;20100;-54
2024/02/29 06:57:35;;;;;;;40.90;27.60;;;10.80;99.90;;;;;;4993597;28;20045;-53
2024/02/29 07:00:01;;;;;;;38.55;28.73;;;11.00;99.90;;;;;;4993707;28;20049;-53
2024/02/29 07:02:27;;;;;;;45.40;31.05;;;10.80;99.90;;;;;;4993647;28;20482;-53
2024/02/29 07:04:53;;;;;;;44.67;32.42;;;10.70;99.90;;;;;;4993759;28;20028;-53
2024/02/29 07:07:19;;;;;;;85.22;44.42;;;10.50;99.90;;;;;;4943760;28;20043;-53
2024/02/29 07:09:44;;;;;;;73.13;40.85;;;10.10;99.90;;;;;;4993601;28;20030;-54
2024/02/29 07:12:10;;;;;;;57.10;35.83;;;10.40;99.90;;;;;;4993654;28;20105;-53
2024/02/29 07:14:36;;;;;;;43.40;32.28;;;;;;;;;;4993689;28;20033;-54
2024/02/29 07:17:03;;;;;;;45.03;30.80;;;10.90;99.90;;;;;;4993631;28;20094;-53
2024/02/29 07:19:28;;;;;;;51.25;33.60;;;11.00;99.90;;;;;;4993560;28;20549;-53
2024/02/29 07:21:54;;;;;;;41.85;30.92;;;11.10;99.90;;;;;;4993773;28;20114;-53
2024/02/29 07:24:20;;;;;;;56.15;39.10;;;10.70;99.90;;;;;;4997155;28;20422;-52
2024/02/29 07:26:46;;;;;;;45.42;31.25;;;;;;;;;;4997412;28;20117;-54
2024/02/29 07:29:12;;;;;;;44.35;29.20;;;;;;;;;;4997108;28;20069;-54
2024/02/29 07:31:40;;;;;;;31.70;24.75;;;;;;;;;;4996864;28;20494;-53
2024/02/29 07:34:06;;;;;;;37.67;27.23;;;10.20;99.90;;;;;;4996868;28;20030;-53
2024/02/29 07:36:31;;;;;;;35.88;26.42;;;10.10;99.90;;;;;;4991783;28;20031;-55
2024/02/29 07:38:57;;;;;;;46.15;30.77;;;10.20;99.90;;;;;;4951097;28;20038;-53
2024/02/29 07:41:23;;;;;;;51.22;31.33;;;10.30;99.90;;;;;;4938042;28;20034;-55
2024/02/29 07:43:49;;;;;;;40.75;29.50;;;10.20;99.90;;;;;;4993453;28;20031;-54
2024/02/29 07:46:16;;;;;;;45.10;30.58;;;10.40;99.90;;;;;;4996539;28;20018;-54
2024/02/29 07:48:42;;;;;;;44.53;30.92;;;10.50;99.90;;;;;;4996259;28;20034;-54
2024/02/29 07:51:09;;;;;;;43.78;31.27;;;;;;;;;;4996036;28;20027;-56
2024/02/29 07:53:34;;;;;;;39.92;29.98;;;11.40;99.90;;;;;;4946128;28;20503;-55
2024/02/29 07:56:04;;;;;;;45.83;31.35;;;11.50;99.90;;;;;;4995786;28;20049;-53
2024/02/29 07:58:30;;;;;;;42.63;28.10;;;;;;;;;;4993567;28;20497;-52
2024/02/29 08:00:56;;;;;;;42.42;30.83;;;;;;;;;;4995937;28;20165;-52
2024/02/29 08:03:24;;;;;;;48.85;33.42;;;;;;;;;;4995951;28;20026;-54
2024/02/29 08:05:50;;;;;;;45.80;34.13;;;12.20;99.90;;;;;;4993201;28;20042;-55
2024/02/29 08:08:16;;;;;;;47.60;33.92;;;12.30;99.90;;;;;;4996030;28;20019;-54
2024/02/29 08:10:43;;;;;;;46.95;33.45;;;;;;;;;;4995712;28;20029;-51
2024/02/29 08:13:08;;;;;;;42.78;31.02;;;12.70;99.90;;;;;;4995676;28;20030;-56
2024/02/29 08:15:34;;;;;;;43.35;31.75;;;12.90;99.90;;;;;;4995533;28;20070;-52
2024/02/29 08:18:00;;;;;;;41.83;31.02;;;12.80;99.90;;;;;;4995572;28;20041;-55
2024/02/29 08:20:26;;;;;;;43.72;31.17;;;12.90;99.90;;;;;;4995560;28;20049;-54
2024/02/29 08:22:56;;;;;;;46.92;32.17;;;12.40;99.90;;;;;;4995566;28;20026;-56
2024/02/29 08:25:26;;;;;;;45.08;32.08;;;12.40;99.90;;;;;;4995615;28;20441;-61
2024/02/29 08:27:53;;;;;;;44.75;31.98;;;12.50;99.90;;;;;;4992983;28;20026;-54
2024/02/29 08:30:19;;;;;;;39.95;30.00;;;12.70;99.90;;;;;;4961195;28;20430;-54
2024/02/29 08:32:45;;;;;;;41.25;31.52;;;12.80;99.90;;;;;;4995183;28;20023;-50
2024/02/29 08:35:11;;;;;;;45.90;32.13;;;12.90;99.90;;;;;;4994808;28;20030;-49
2024/02/29 08:37:37;;;;;;;42.70;32.67;;;12.80;99.90;;;;;;4944893;28;20038;-50
2024/02/29 08:40:04;;;;;;;47.78;32.95;;;12.70;99.90;;;;;;4995503;28;20030;-53
2024/02/29 08:42:30;;;;;;;47.03;33.58;;;12.80;99.90;;;;;;4946241;28;20517;-52
2024/02/29 08:44:57;;;;;;;46.63;32.67;;;13.00;99.90;;;;;;4995673;28;20454;-51
2024/02/29 08:47:22;;;;;;;45.95;34.20;;;13.10;99.90;;;;;;4995558;28;20037;-54
2024/02/29 08:49:48;;;;;;;45.60;34.75;;;13.20;99.90;;;;;;4995748;28;20026;-52
2024/02/29 08:52:14;;;;;;;40.90;30.75;;;13.50;99.90;;;;;;4945501;28;20046;-52
2024/02/29 08:54:39;;;;;;;52.10;36.28;;;13.50;99.90;;;;;;4995231;28;20058;-51
2024/02/29 08:57:07;;;;;;;40.15;32.75;;;;;;;;;;4995334;28;20404;-54
2024/02/29 08:59:33;;;;;;;43.78;33.20;;;13.70;99.90;;;;;;4946173;28;20049;-53
2024/02/29 09:02:00;;;;;;;44.78;32.88;;;13.50;99.90;;;;;;4995414;28;20026;-54
2024/02/29 09:04:26;;;;;;;44.03;31.27;;;13.60;99.90;;;;;;4995262;28;20176;-53
2024/02/29 09:06:52;;;;;;;41.17;31.95;;;13.70;99.90;;;;;;4903420;29;20489;-55
2024/02/29 09:09:18;;;;;;;41.88;31.25;;;13.80;99.90;;;;;;4935138;29;20122;-51
2024/02/29 09:11:44;;;;;;;49.67;34.05;;;13.60;99.90;;;;;;4935508;29;20068;-53
2024/02/29 09:14:10;;;;;;;41.28;31.40;;;13.70;99.90;;;;;;4916276;29;20493;-52
2024/02/29 09:16:35;;;;;;;46.55;35.33;;;13.80;99.90;;;;;;4853586;29;20456;-52
2024/02/29 09:19:02;;;;;;;42.50;32.88;;;13.40;99.90;;;;;;4869080;29;20053;-52
2024/02/29 09:21:28;;;;;;;47.08;33.30;;;13.50;99.90;;;;;;4916109;29;20044;-51
2024/02/29 09:23:54;;;;;;;45.28;33.53;;;13.30;99.90;;;;;;4916159;29;20524;-52
2024/02/29 09:26:19;;;;;;;43.15;33.60;;;13.60;99.90;;;;;;4915919;29;20036;-52
2024/02/29 09:28:46;;;;;;;45.03;34.17;;;13.80;99.90;;;;;;4915954;29;20034;-51
2024/02/29 09:31:12;;;;;;;43.72;32.30;;;13.60;99.90;;;;;;4915867;29;20385;-53
2024/02/29 09:33:38;;;;;;;40.55;30.63;;;;;;;;;;4915980;29;20048;-52
2024/02/29 09:36:11;;;;;;;43.17;30.60;;;14.20;99.90;;;;;;4915680;29;20115;-52
2024/02/29 09:38:40;;;;;;;43.30;30.60;;;14.40;99.90;;;;;;4946682;29;20078;-54
2024/02/29 09:41:09;;;;;;;43.35;30.27;;;14.50;99.90;;;;;;4953864;29;20027;-51
2024/02/29 09:43:36;;;;;;;39.65;31.13;;;14.30;99.90;;;;;;4953814;29;20063;-53
2024/02/29 09:46:02;;;;;;;47.15;35.10;;;;;;;;;;4952802;28;20126;-54
2024/02/29 09:48:29;;;;;;;42.00;32.90;;;14.60;99.90;;;;;;4953675;29;20031;-52
2024/02/29 09:50:59;;;;;;;38.10;29.50;;;14.30;99.90;;;;;;4962769;28;20525;-51
2024/02/29 09:53:25;;;;;;;45.63;30.95;;;14.30;99.90;;;;;;4994472;28;20045;-51
2024/02/29 09:55:51;;;;;;;40.60;31.33;;;14.30;99.90;;;;;;4994126;28;20054;-54
2024/02/29 09:58:20;;;;;;;42.80;32.20;;;14.30;99.90;;;;;;4994219;28;20081;-53
2024/02/29 10:00:47;;;;;;;39.33;29.50;;;;;;;;;;4994111;28;20430;-52
2024/02/29 10:03:16;;;;;;;42.30;30.10;;;;;;;;;;4994307;28;20033;-52
2024/02/29 10:05:42;;;;;;;40.28;29.73;;;;;;;;;;4994375;28;20037;-52
2024/02/29 10:08:08;;;;;;;44.63;35.72;;;14.80;99.90;;;;;;4976035;28;20391;-54
2024/02/29 10:10:34;;;;;;;41.97;29.85;;;15.00;99.90;;;;;;4994321;28;20030;-54
2024/02/29 10:13:00;;;;;;;41.22;29.88;;;15.00;99.90;;;;;;4994057;28;20027;-52
2024/02/29 10:15:27;;;;;;;48.88;32.90;;;15.00;99.90;;;;;;4944256;28;20038;-52
2024/02/29 10:17:54;;;;;;;55.95;39.55;;;;;;;;;;4975907;28;20093;-53
2024/02/29 10:20:21;;;;;;;43.88;34.35;;;15.00;99.90;;;;;;4994199;28;20038;-51
2024/02/29 10:22:49;;;;;;;63.22;39.85;;;15.00;99.90;;;;;;4994058;28;20030;-52
2024/02/29 10:25:15;;;;;;;52.97;36.75;;;15.00;99.90;;;;;;4993913;28;20042;-53
2024/02/29 10:27:41;;;;;;;50.17;37.17;;;14.90;99.90;;;;;;4993953;28;20122;-53
2024/02/29 10:30:18;;;;;;;54.53;40.47;;;15.00;99.90;;;;;;4971444;28;20047;-52
2024/02/29 10:32:45;;;;;;;54.75;39.97;;;15.00;99.90;;;;;;4992104;28;20031;-51
2024/02/29 10:35:30;;;;;;;52.22;39.72;;;14.80;99.90;;;;;;4983684;28;20043;-50
2024/02/29 10:37:56;;;;;;;56.33;42.33;;;14.80;99.90;;;;;;4975898;28;20050;-50
2024/02/29 10:40:23;;;;;;;56.25;43.38;;;14.80;99.90;;;;;;4943786;28;20042;-49
2024/02/29 10:42:56;;;;;;;54.78;43.20;;;14.80;99.90;;;;;;4993717;28;20034;-49
2024/02/29 10:45:25;;;;;;;54.88;44.42;;;15.00;99.90;;;;;;4993884;28;20088;-51
2024/02/29 10:48:00;;;;;;;55.67;43.75;;;14.90;99.90;;;;;;4993773;28;20382;-49
2024/02/29 10:50:26;;;;;;;66.35;45.15;;;15.10;99.90;;;;;;4993686;28;20026;-49
2024/02/29 10:53:17;;;;;;;64.97;45.90;;;15.20;99.90;;;;;;4993615;28;20113;-47
2024/02/29 10:55:49;;;;;;;69.47;49.58;;;15.20;99.90;;;;;;4993636;28;20056;-48
2024/02/29 10:58:35;;;;;;;102.55;78.80;;;15.40;99.90;;;;;;4959582;28;20058;-48
2024/02/29 11:01:02;;;;;;;82.00;68.97;;;15.50;99.90;;;;;;4979117;28;20066;-51
2024/02/29 11:03:29;;;;;;;79.75;64.03;;;15.60;99.90;;;;;;4988630;28;20039;-53
2024/02/29 11:05:56;;;;;;;115.00;97.40;;;15.60;99.90;;;;;;4983853;28;20529;-54
2024/02/29 11:08:22;;;;;;;57.47;45.63;;;15.70;99.90;;;;;;4977808;28;20479;-55
2024/02/29 11:10:48;;;;;;;75.13;59.55;;;15.50;99.90;;;;;;4977964;28;20031;-55
2024/02/29 11:13:21;;;;;;;64.88;47.35;;;15.30;99.90;;;;;;4984930;28;20022;-53
2024/02/29 11:15:53;;;;;;;52.88;40.97;;;15.30;99.90;;;;;;4997104;28;20548;-54
2024/02/29 11:18:27;;;;;;;56.63;40.83;;;15.10;99.90;;;;;;4997024;28;20073;-51
2024/02/29 11:21:03;;;;;;;59.38;45.00;;;15.30;99.90;;;;;;4962966;28;20505;-50
2024/02/29 11:23:34;;;;;;;51.92;36.80;;;15.50;99.90;;;;;;4930958;28;20038;-52
2024/02/29 11:26:08;;;;;;;56.08;40.83;;;15.70;99.90;;;;;;4997009;28;20109;-51
2024/02/29 11:28:41;;;;;;;50.33;37.28;;;15.90;99.90;;;;;;4946706;28;20045;-51
2024/02/29 11:31:15;;;;;;;43.08;33.55;;;15.90;99.90;;;;;;4997033;28;20402;-51
2024/02/29 11:33:42;;;;;;;41.78;32.55;;;;;;;;;;4996817;28;20026;-51
2024/02/29 11:36:10;;;;;;;45.05;32.20;;;16.10;99.90;;;;;;4996646;28;20041;-51
2024/02/29 11:38:36;;;;;;;44.83;29.35;;;16.00;99.90;;;;;;4996875;28;20037;-52
2024/02/29 11:41:02;;;;;;;72.75;42.75;;;;;;;;;;4946862;28;20038;-51
2024/02/29 11:43:28;;;;;;;58.35;34.28;;;;;;;;;;4996643;28;20065;-53
2024/02/29 11:45:54;;;;;;;41.28;29.23;;;15.90;99.90;;;;;;4996566;28;20041;-51
2024/02/29 11:48:20;;;;;;;40.22;31.17;;;;;;;;;;4962537;28;20471;-51
2024/02/29 11:50:46;;;;;;;39.67;26.23;;;;;;;;;;4996756;28;20034;-51
2024/02/29 11:53:12;;;;;;;38.85;26.88;;;16.40;99.90;;;;;;4996484;28;20029;-53
2024/02/29 11:55:38;;;;;;;35.90;25.45;;;;;;;;;;4996577;28;20375;-51
2024/02/29 11:58:05;;;;;;;46.58;30.50;;;;;;;;;;4996570;28;20443;-49
2024/02/29 12:00:31;;;;;;;35.60;25.10;;;;;;;;;;4955572;29;20046;-49
2024/02/29 12:02:57;;;;;;;33.17;22.60;;;;;;;;;;4923811;29;20107;-51
2024/02/29 12:05:24;;;;;;;33.53;22.40;;;;;;;;;;4955503;29;20043;-50
2024/02/29 12:07:51;;;;;;;31.25;22.50;;;;;;;;;;4955505;29;20034;-50
2024/02/29 12:10:17;;;;;;;28.05;19.85;;;19.40;99.90;;;;;;4954448;28;20054;-52
2024/02/29 12:12:43;;;;;;;31.25;19.70;;;;;;;;;;4923751;29;20031;-51
2024/02/29 12:15:10;;;;;;;31.17;21.10;;;19.50;99.90;;;;;;4955392;29;20031;-49
2024/02/29 12:17:37;;;;;;;34.15;21.50;;;;;;;;;;4955163;29;20073;-51
2024/02/29 12:20:05;;;;;;;33.67;19.42;;;;;;;;;;4955338;29;20086;-51
2024/02/29 12:22:32;;;;;;;27.35;18.67;;;;;;;;;;4955200;29;20040;-49
2024/02/29 12:24:58;;;;;;;23.58;15.57;;;;;;;;;;4923503;29;20489;-52
2024/02/29 12:27:24;;;;;;;19.63;14.15;;;;;;;;;;4955308;29;20031;-50
2024/02/29 12:29:51;;;;;;;20.77;15.20;;;;;;;;;;4955190;29;20056;-50
2024/02/29 12:32:17;;;;;;;26.73;16.48;;;;;;;;;;4988402;28;20038;-52
2024/02/29 12:34:46;;;;;;;22.98;15.05;;;;;;;;;;4995948;28;20034;-51
2024/02/29 12:37:12;;;;;;;21.77;13.95;;;;;;;;;;4995824;28;20466;-51
2024/02/29 12:39:38;;;;;;;21.67;15.23;;;19.60;97.30;;;;;;4995685;28;20038;-52
2024/02/29 12:42:04;;;;;;;26.42;16.60;;;;;;;;;;4996358;28;20030;-53